Terminal Aerodrome Forecast
Issued by NWS

Home | Current Version | Previous Version | Text Only | Print | Product List | Glossary Off
Versions: 1 2 3 4 5 6 7 8 9 10 11 12 13 14 15

000
FTUS41 KCLE 201120
TAFFDY
TAF
KFDY 201120Z 2012/2112 22005KT P6SM SCT200
      TEMPO 2012/2013 5SM BR
     FM201500 23010KT P6SM SCT035 OVC200
     FM201700 25012KT P6SM VCTS FEW035CB BKN080
     FM210200 25006KT P6SM SCT030 BKN060
     FM210800 32004KT P6SM BKN060
     FM211100 02005KT 4SM BR BKN015=

USA.gov is the U.S. government's official web portal to all federal, state and local government web resources and services.